Time;durP1;ratioP1;P1;durP2;ratioP2;P2;SDS_P1;SDS_P2;PMS_P1;PMS_P2;Temp;Humidity;BMP_temperature;BMP_pressure;BME280_temperature;BME280_humidity;BME280_pressure;Samples;Min_cycle;Max_cycle;Signal;HPM_P1;HPM_P2
2021/11/01 00:00:29;;;;;;;;;;;;;;;19.07;61.37;101149.50;5012148;28;1844;-44
2021/11/01 00:02:59;;;;;;;;;;;;;;;19.13;61.12;101164.22;4994070;28;2041;-44
2021/11/01 00:05:26;;;;;;;;;;;;;;;19.10;62.28;101143.88;5006608;28;1830;-44
2021/11/01 00:07:55;;;;;;;;;;;;;;;19.14;61.91;101149.81;5012550;28;1863;-44
2021/11/01 00:10:25;;;;;;;;;;;;;;;19.22;61.63;101163.47;5012369;28;1911;-44
2021/11/01 00:12:53;;;;;;;;;;;;;;;19.13;61.32;101157.03;5014106;28;1024;-44
2021/11/01 00:15:22;;;;;;;;;;;;;;;19.04;62.04;101147.06;5012909;28;2040;-45
2021/11/01 00:17:52;;;;;;;;;;;;;;;19.05;61.67;101146.09;5013377;28;2059;-44
2021/11/01 00:20:25;;;;;;;;;;;;;;;19.04;60.72;101139.88;5013317;28;1245;-44
2021/11/01 00:22:54;;;;;;;;;;;;;;;19.29;61.25;101156.59;5009990;28;1867;-44
2021/11/01 00:25:21;;;;;;;;;;;;;;;19.25;60.68;101139.91;5012941;28;1838;-44
2021/11/01 00:27:55;;;;;;;;;;;;;;;19.21;60.52;101145.66;5009750;28;2194;-45
2021/11/01 00:30:22;;;;;;;;;;;;;;;19.11;60.84;101150.94;5001188;28;1969;-44
2021/11/01 00:32:52;;;;;;;;;;;;;;;19.03;60.77;101138.16;5012718;28;1822;-44
2021/11/01 00:35:18;;;;;;;;;;;;;;;19.01;61.23;101140.13;5010531;28;1514;-44
2021/11/01 00:37:51;;;;;;;;;;;;;;;19.02;61.27;101139.16;5013358;28;1044;-44
2021/11/01 00:40:17;;;;;;;;;;;;;;;19.02;61.08;101124.88;5011942;28;1796;-44
2021/11/01 00:42:45;;;;;;;;;;;;;;;19.02;61.65;101136.47;5013131;28;1448;-44
2021/11/01 00:45:13;;;;;;;;;;;;;;;19.03;61.13;101138.16;5013137;28;1851;-44
2021/11/01 00:47:43;;;;;;;;;;;;;;;19.07;61.23;101128.03;5006975;28;1859;-44
2021/11/01 00:50:14;;;;;;;;;;;;;;;18.98;60.97;101124.31;5012576;28;1902;-44
2021/11/01 00:52:44;;;;;;;;;;;;;;;18.98;61.06;101132.34;5012819;28;1649;-44
2021/11/01 00:55:22;;;;;;;;;;;;;;;18.95;61.05;101121.03;5012993;28;1980;-44
2021/11/01 00:57:50;;;;;;;;;;;;;;;18.99;61.21;101119.78;5013278;28;2002;-44
2021/11/01 01:00:18;;;;;;;;;;;;;;;19.08;60.73;101117.19;5013574;28;1690;-44
2021/11/01 01:02:59;;;;;;;;;;;;;;;19.05;61.07;101117.44;5012643;28;1562;-44
2021/11/01 01:05:28;;;;;;;;;;;;;;;19.00;60.65;101111.63;5012875;28;1377;-44
2021/11/01 01:07:56;;;;;;;;;;;;;;;18.94;61.72;101116.63;5013608;28;1004;-44
2021/11/01 01:10:29;;;;;;;;;;;;;;;18.95;61.77;101116.50;5012900;28;2032;-44
2021/11/01 01:12:58;;;;;;;;;;;;;;;19.11;61.65;101120.59;5013487;28;1106;-44
2021/11/01 01:15:28;;;;;;;;;;;;;;;19.03;60.68;101108.69;5013717;28;1970;-44
2021/11/01 01:18:01;;;;;;;;;;;;;;;19.06;61.08;101115.63;5016411;28;2030;-44
2021/11/01 01:20:30;;;;;;;;;;;;;;;19.11;60.43;101107.19;5012588;28;1959;-44
2021/11/01 01:23:00;;;;;;;;;;;;;;;19.13;60.48;101107.91;5016774;28;1861;-44
2021/11/01 01:25:44;;;;;;;;;;;;;;;19.03;60.90;101089.91;5015223;28;1968;-44
2021/11/01 01:28:15;;;;;;;;;;;;;;;19.10;60.72;101095.63;5001806;28;1765;-44
2021/11/01 01:30:42;;;;;;;;;;;;;;;19.11;60.04;101080.41;5016072;28;1910;-44
2021/11/01 01:33:10;;;;;;;;;;;;;;;19.10;60.40;101089.41;5016202;28;1795;-44
2021/11/01 01:35:40;;;;;;;;;;;;;;;19.04;60.87;101086.28;5016243;28;1732;-44
2021/11/01 01:38:11;;;;;;;;;;;;;;;19.00;60.57;101084.81;5016680;28;1080;-44
2021/11/01 01:40:42;;;;;;;;;;;;;;;18.94;60.66;101079.09;5016171;28;1796;-44
2021/11/01 01:43:12;;;;;;;;;;;;;;;18.98;61.21;101085.91;5002298;28;1793;-44
2021/11/01 01:45:39;;;;;;;;;;;;;;;18.94;61.26;101079.97;5016136;28;1851;-44
2021/11/01 01:48:14;;;;;;;;;;;;;;;18.97;60.08;101070.81;5014855;28;1893;-44
2021/11/01 01:50:40;;;;;;;;;;;;;;;18.92;61.51;101073.91;4999450;28;2066;-44
2021/11/01 01:53:09;;;;;;;;;;;;;;;18.97;60.65;101071.66;5016614;28;990;-44
2021/11/01 01:55:36;;;;;;;;;;;;;;;19.07;60.88;101075.28;5015409;28;1734;-44
2021/11/01 01:58:07;;;;;;;;;;;;;;;19.00;60.97;101068.75;5015464;28;1780;-44
2021/11/01 02:00:52;;;;;;;;;;;;;;;18.95;60.46;101064.75;5015363;28;1650;-44
2021/11/01 02:03:22;;;;;;;;;;;;;;;18.98;61.75;101062.66;5015318;28;2087;-44
2021/11/01 02:06:07;;;;;;;;;;;;;;;19.60;60.37;101054.78;5015371;28;1676;-44
2021/11/01 02:08:38;;;;;;;;;;;;;;;19.50;61.06;101064.56;5016286;28;995;-44
2021/11/01 02:11:14;;;;;;;;;;;;;;;19.70;61.41;101071.78;5015589;28;1907;-44
2021/11/01 02:13:48;;;;;;;;;;;;;;;20.08;60.28;101056.88;5014392;28;1889;-44
2021/11/01 02:16:16;;;;;;;;;;;;;;;19.79;61.07;101054.88;4999085;28;1773;-43
2021/11/01 02:18:45;;;;;;;;;;;;;;;19.51;60.58;101066.28;5015655;28;1815;-44
2021/11/01 02:21:23;;;;;;;;;;;;;;;19.45;61.74;101057.78;4995845;28;1774;-44
2021/11/01 02:23:53;;;;;;;;;;;;;;;19.65;60.43;101057.91;5013633;28;1108;-44
2021/11/01 02:26:25;;;;;;;;;;;;;;;19.76;61.59;101057.00;5015195;28;1965;-44
2021/11/01 02:28:52;;;;;;;;;;;;;;;19.60;61.37;101060.16;5015056;28;1849;-44
2021/11/01 02:31:22;;;;;;;;;;;;;;;19.57;60.71;101055.03;5014737;28;2015;-44
2021/11/01 02:33:52;;;;;;;;;;;;;;;19.71;61.68;101059.19;5015246;28;1781;-43
2021/11/01 02:36:21;;;;;;;;;;;;;;;19.70;61.33;101063.72;5015146;28;1687;-44
2021/11/01 02:38:50;;;;;;;;;;;;;;;19.64;60.00;101066.94;4996192;28;1028;-44
2021/11/01 02:41:19;;;;;;;;;;;;;;;19.54;61.68;101049.94;5009013;28;1870;-43
2021/11/01 02:43:50;;;;;;;;;;;;;;;19.71;60.25;101061.88;5014737;28;1415;-44
2021/11/01 02:46:16;;;;;;;;;;;;;;;19.83;61.35;101061.69;4966171;28;10874;-44
2021/11/01 02:48:45;;;;;;;;;;;;;;;20.05;59.72;101055.31;5015107;28;1701;-44
2021/11/01 02:51:12;;;;;;;;;;;;;;;19.69;60.75;101062.00;5014790;28;2017;-43
2021/11/01 02:53:39;;;;;;;;;;;;;;;19.50;61.78;101048.47;5015188;28;1091;-43
2021/11/01 02:56:09;;;;;;;;;;;;;;;19.57;61.63;101063.06;5014014;28;1825;-43
2021/11/01 02:58:36;;;;;;;;;;;;;;;19.82;61.60;101041.22;5014626;28;1900;-43
2021/11/01 03:01:05;;;;;;;;;;;;;;;19.63;60.78;101046.44;5124221;22;3548;-44
2021/11/01 03:03:35;;;;;;;;;;;;;;;19.54;61.92;101044.56;5009487;28;1871;-45
2021/11/01 03:06:10;;;;;;;;;;;;;;;19.59;61.96;101037.81;4997005;28;1795;-44
2021/11/01 03:08:40;;;;;;;;;;;;;;;19.63;61.94;101038.41;5009602;28;1934;-44
2021/11/01 03:11:30;;;;;;;;;;;;;;;19.61;61.83;101037.69;5011302;28;1906;-44
2021/11/01 03:13:59;;;;;;;;;;;;;;;19.54;61.75;101039.22;5012446;28;1697;-44
2021/11/01 03:16:28;;;;;;;;;;;;;;;19.78;61.49;101029.06;5013092;28;1695;-44
2021/11/01 03:22:05;;;;;;;;;;;;;;;19.46;61.17;101026.47;5010567;28;1711;-43
2021/11/01 03:24:43;;;;;;;;;;;;;;;19.57;60.87;101031.72;5012857;28;1174;-45
2021/11/01 03:27:11;;;;;;;;;;;;;;;19.80;61.32;101021.72;4992815;28;1291;-44
2021/11/01 03:29:59;;;;;;;;;;;;;;;19.61;60.73;101035.00;5012091;28;1857;-45
2021/11/01 03:32:28;;;;;;;;;;;;;;;19.53;60.68;101029.44;5012051;28;1067;-43
2021/11/01 03:34:55;;;;;;;;;;;;;;;19.70;61.71;101015.44;5012369;28;1874;-43
2021/11/01 03:37:23;;;;;;;;;;;;;;;19.71;60.14;101024.31;5012548;28;1740;-44
2021/11/01 03:39:53;;;;;;;;;;;;;;;19.61;61.44;101010.84;4993460;28;1872;-44
2021/11/01 03:42:21;;;;;;;;;;;;;;;19.62;61.05;101001.84;5010867;28;1712;-44
2021/11/01 03:44:52;;;;;;;;;;;;;;;19.77;60.62;101008.56;5013021;28;1050;-44
2021/11/01 03:47:21;;;;;;;;;;;;;;;19.71;61.28;101011.78;5011975;28;2009;-45
2021/11/01 03:49:56;;;;;;;;;;;;;;;19.57;61.50;101006.75;5012685;28;2037;-44
2021/11/01 03:52:35;;;;;;;;;;;;;;;19.59;60.51;100988.69;5012400;28;1914;-43
2021/11/01 03:55:05;;;;;;;;;;;;;;;19.73;61.23;101001.75;4996598;28;1850;-44
2021/11/01 03:57:34;;;;;;;;;;;;;;;19.64;60.25;100986.47;5010791;28;1516;-45
2021/11/01 04:00:01;;;;;;;;;;;;;;;19.49;60.81;100991.31;5006301;28;1736;-44
2021/11/01 04:02:28;;;;;;;;;;;;;;;19.62;61.88;100981.22;5012456;28;1273;-44
2021/11/01 04:04:59;;;;;;;;;;;;;;;19.62;62.43;100983.06;5011036;28;1769;-44
2021/11/01 04:07:31;;;;;;;;;;;;;;;19.37;63.06;100976.28;5010803;28;1440;-44
2021/11/01 04:09:59;;;;;;;;;;;;;;;19.28;63.21;100976.09;5012120;28;2118;-44
2021/11/01 04:12:26;;;;;;;;;;;;;;;19.64;61.18;100975.72;5012925;28;1906;-44
2021/11/01 04:14:57;;;;;;;;;;;;;;;19.71;61.54;100982.25;5011897;28;1640;-44
2021/11/01 04:17:40;;;;;;;;;;;;;;;19.46;62.98;100973.66;5011489;28;1918;-44
2021/11/01 04:20:28;;;;;;;;;;;;;;;19.29;63.17;100955.50;4994209;28;2413;-43
2021/11/01 04:23:05;;;;;;;;;;;;;;;19.53;62.33;100957.03;5011916;28;1763;-44
2021/11/01 04:28:17;;;;;;;;;;;;;;;19.35;63.39;100948.75;5000070;28;2645;-44
2021/11/01 04:30:55;;;;;;;;;;;;;;;19.27;62.79;100944.91;5011965;28;1976;-44
2021/11/01 04:33:25;;;;;;;;;;;;;;;19.58;63.28;100947.59;5011375;28;1812;-44
2021/11/01 04:35:55;;;;;;;;;;;;;;;19.58;63.00;100950.28;4993209;28;1349;-44
2021/11/01 04:38:38;;;;;;;;;;;;;;;19.34;63.64;100934.50;5012467;28;950;-43
2021/11/01 04:41:12;;;;;;;;;;;;;;;19.30;63.35;100949.16;5012280;28;2279;-44
2021/11/01 04:55:00;;;;;;;;;;;;;;;19.66;62.92;100963.03;4921094;29;1692;-44
2021/11/01 04:57:28;;;;;;;;;;;;;;;19.47;63.75;100951.19;4936674;29;1754;-44
2021/11/01 04:59:56;;;;;;;;;;;;;;;19.25;63.77;100948.69;4974163;28;1225;-44
2021/11/01 05:02:26;;;;;;;;;;;;;;;19.52;63.92;100955.31;5014987;28;1504;-44
2021/11/01 05:04:57;;;;;;;;;;;;;;;19.62;62.70;100958.91;5015241;28;1834;-43
2021/11/01 05:07:27;;;;;;;;;;;;;;;19.33;64.66;100950.72;5015092;28;1607;-44
2021/11/01 05:10:02;;;;;;;;;;;;;;;19.16;64.02;100942.31;4999104;28;1762;-43
2021/11/01 05:12:32;;;;;;;;;;;;;;;19.50;63.72;100934.00;5016283;28;1910;-44
2021/11/01 05:15:07;;;;;;;;;;;;;;;19.82;63.80;100936.56;4997164;28;1849;-43
2021/11/01 05:17:50;;;;;;;;;;;;;;;19.60;63.70;100947.47;4984761;28;11980;-46
2021/11/01 05:20:23;;;;;;;;;;;;;;;19.42;64.02;100944.56;5013006;28;1810;-43
2021/11/01 05:23:05;;;;;;;;;;;;;;;19.55;64.29;100955.06;5014787;28;1752;-44
2021/11/01 05:25:39;;;;;;;;;;;;;;;19.66;64.09;100952.28;5004234;28;1639;-43
2021/11/01 05:28:24;;;;;;;;;;;;;;;19.47;63.73;100956.56;5014746;28;1746;-45
2021/11/01 05:30:54;;;;;;;;;;;;;;;19.56;64.62;100954.94;5007231;28;1977;-44
2021/11/01 05:33:40;;;;;;;;;;;;;;;19.81;62.75;100967.03;5003923;28;1372;-44
2021/11/01 05:36:15;;;;;;;;;;;;;;;19.77;63.16;100946.84;5012270;28;1661;-44
2021/11/01 05:38:49;;;;;;;;;;;;;;;19.53;63.64;100951.66;5001746;28;1732;-44
2021/11/01 05:41:16;;;;;;;;;;;;;;;19.71;63.23;100966.16;5014903;28;1777;-45
2021/11/01 05:43:46;;;;;;;;;;;;;;;19.95;63.78;100952.41;5006187;28;1778;-44
2021/11/01 05:46:15;;;;;;;;;;;;;;;19.70;63.19;100972.50;5007847;28;1582;-44
2021/11/01 05:48:48;;;;;;;;;;;;;;;19.54;63.64;100961.44;5007286;28;1934;-43
2021/11/01 05:51:17;;;;;;;;;;;;;;;19.70;64.65;100968.97;5014120;28;1989;-44
2021/11/01 05:53:51;;;;;;;;;;;;;;;19.83;64.49;100951.66;5015418;28;1219;-44
2021/11/01 05:56:29;;;;;;;;;;;;;;;19.67;64.43;100964.72;5009011;28;1675;-45
2021/11/01 05:59:10;;;;;;;;;;;;;;;19.70;64.56;100961.75;5014032;28;1806;-44
2021/11/01 06:07:25;;;;;;;;;;;;;;;19.61;64.90;100963.41;5000104;28;1628;-44
2021/11/01 06:10:07;;;;;;;;;;;;;;;19.59;65.93;100969.91;4997099;28;1734;-44
2021/11/01 06:15:22;;;;;;;;;;;;;;;19.73;65.96;100966.88;5013880;28;2170;-44
2021/11/01 06:20:32;;;;;;;;;;;;;;;19.74;66.02;100973.97;5010125;28;2519;-44
2021/11/01 06:23:08;;;;;;;;;;;;;;;19.87;64.74;100981.75;5013016;28;1605;-44
2021/11/01 06:25:39;;;;;;;;;;;;;;;19.63;65.89;100976.69;5016690;28;1388;-44
2021/11/01 06:28:09;;;;;;;;;;;;;;;19.56;65.54;100978.22;5008123;28;2007;-45
2021/11/01 06:30:41;;;;;;;;;;;;;;;19.95;65.76;100979.25;5011422;28;1773;-44
2021/11/01 06:33:26;;;;;;;;;;;;;;;19.82;64.41;100990.22;5009681;28;1907;-44
2021/11/01 06:41:44;;;;;;;;;;;;;;;19.78;64.16;100983.44;5013097;28;2150;-44
2021/11/01 06:44:42;;;;;;;;;;;;;;;19.80;65.16;100969.88;5005888;28;1903;-44
2021/11/01 06:49:58;;;;;;;;;;;;;;;19.74;65.02;100960.53;5007663;28;1812;-44
2021/11/01 06:58:00;;;;;;;;;;;;;;;19.70;64.76;100964.44;4967035;28;2005;-44
2021/11/01 07:14:38;;;;;;;;;;;;;;;19.68;64.91;100944.97;5007057;28;1889;-44
2021/11/01 07:17:13;;;;;;;;;;;;;;;19.65;64.29;100942.53;5007328;28;1626;-44
2021/11/01 08:29:01;;;;;;;;;;;;;;;19.83;64.63;100905.19;5003665;28;1626;-44
2021/11/01 08:48:33;;;;;;;;;;;;;;;20.10;63.91;100901.03;5041246;28;1770;-44
2021/11/01 09:05:32;;;;;;;;;;;;;;;20.00;66.90;100891.09;5129667;27;1736;-44
2021/11/01 09:08:09;;;;;;;;;;;;;;;19.95;66.39;100873.72;5115444;27;1575;-43
2021/11/01 09:10:58;;;;;;;;;;;;;;;19.88;66.94;100881.50;5136627;27;1714;-44
2021/11/01 09:18:55;;;;;;;;;;;;;;;20.05;68.40;100871.88;5094104;28;1867;-44
2021/11/01 09:26:56;;;;;;;;;;;;;;;20.03;67.75;100863.13;5132122;27;2790;-44
2021/11/01 09:29:40;;;;;;;;;;;;;;;19.92;68.38;100879.38;5123247;27;1705;-44
2021/11/01 09:40:57;;;;;;;;;;;;;;;20.01;68.62;100854.38;5104999;28;1961;-43
2021/11/01 09:43:24;;;;;;;;;;;;;;;20.15;69.02;100861.16;5093278;28;1910;-44
2021/11/01 09:45:53;;;;;;;;;;;;;;;20.70;66.57;100836.41;5109412;27;1782;-43
2021/11/01 09:48:20;;;;;;;;;;;;;;;20.69;67.70;100842.78;5117340;27;1933;-43
2021/11/01 09:50:46;;;;;;;;;;;;;;;20.39;68.07;100850.84;5123807;27;1594;-44
2021/11/01 09:53:18;;;;;;;;;;;;;;;20.18;68.89;100851.00;5121904;28;1054;-43
2021/11/01 09:55:49;;;;;;;;;;;;;;;20.10;69.30;100841.97;5126949;27;1979;-44
2021/11/01 10:01:01;;;;;;;;;;;;;;;20.90;66.17;100827.28;5118994;27;1899;-45
2021/11/01 10:03:37;;;;;;;;;;;;;;;20.59;66.64;100824.84;5115188;27;1966;-44
2021/11/01 10:06:04;;;;;;;;;;;;;;;20.39;68.44;100825.81;5120934;28;1661;-43
2021/11/01 10:08:32;;;;;;;;;;;;;;;20.15;67.78;100824.41;5119471;28;1070;-43
2021/11/01 10:10:59;;;;;;;;;;;;;;;20.56;67.91;100816.19;5114358;28;1650;-43
2021/11/01 10:13:27;;;;;;;;;;;;;;;20.92;66.44;100817.25;5116944;27;1515;-46
2021/11/01 10:18:46;;;;;;;;;;;;;;;20.36;68.09;100812.69;5105637;28;1717;-44
2021/11/01 10:21:13;;;;;;;;;;;;;;;20.09;68.94;100798.13;5107809;28;1026;-43
2021/11/01 10:23:47;;;;;;;;;;;;;;;19.99;68.99;100799.97;5107685;27;1906;-43
2021/11/01 10:26:16;;;;;;;;;;;;;;;20.71;66.79;100787.03;5102287;28;1644;-43
2021/11/01 10:28:42;;;;;;;;;;;;;;;20.66;67.32;100777.56;5103916;28;1596;-43
2021/11/01 10:31:09;;;;;;;;;;;;;;;20.42;67.26;100772.66;5102210;28;2011;-44
2021/11/01 10:33:42;;;;;;;;;;;;;;;20.27;68.73;100756.16;5105129;28;1453;-43
2021/11/01 10:36:09;;;;;;;;;;;;;;;20.35;68.27;100773.38;5111565;28;1387;-43
2021/11/01 10:38:37;;;;;;;;;;;;;;;20.62;68.21;100778.03;5105030;28;1173;-43
2021/11/01 10:41:11;;;;;;;;;;;;;;;20.92;66.95;100747.34;5102284;28;1303;-45
2021/11/01 10:43:53;;;;;;;;;;;;;;;20.64;67.77;100766.13;5104413;28;1910;-44
2021/11/01 11:11:21;;;;;;;;;;;;;;;20.32;68.89;100728.88;5105381;28;1916;-40
2021/11/01 11:13:55;;;;;;;;;;;;;;;20.21;69.73;100743.31;5095386;28;1631;-41
2021/11/01 11:16:59;;;;;;;;;;;;;;;20.42;68.52;100739.59;5097102;28;1614;-39
2021/11/01 11:19:35;;;;;;;;;;;;;;;20.80;67.15;100722.50;5097711;28;1679;-39
2021/11/01 11:25:17;;;;;;;;;;;;;;;20.37;67.73;100715.88;5088385;28;1992;-40
2021/11/01 11:39:27;;;;;;;;;;;;;;;20.19;68.25;100718.47;5070819;28;1714;-40
2021/11/01 11:47:46;;;;;;;;;;;;;;;20.73;66.68;100712.50;5107925;28;1362;-40
2021/11/01 11:50:14;;;;;;;;;;;;;;;20.42;67.51;100702.81;5103393;28;1110;-40
2021/11/01 11:52:41;;;;;;;;;;;;;;;20.24;67.80;100686.63;5099499;27;1543;-40
2021/11/01 11:55:19;;;;;;;;;;;;;;;20.45;68.22;100693.63;5102680;27;1570;-40
2021/11/01 12:00:32;;;;;;;;;;;;;;;20.72;66.95;100683.94;5109343;27;1619;-39
2021/11/01 12:03:09;;;;;;;;;;;;;;;20.40;67.23;100687.84;5100659;28;1863;-39
2021/11/01 12:05:38;;;;;;;;;;;;;;;20.18;67.90;100684.53;5102239;28;1910;-39
2021/11/01 12:08:18;;;;;;;;;;;;;;;20.18;68.21;100687.22;5097555;28;1645;-40
2021/11/01 12:17:13;;;;;;;;;;;;;;;20.16;67.63;100674.94;5109248;28;2326;-40
2021/11/01 12:19:54;;;;;;;;;;;;;;;20.24;67.61;100646.34;5109556;28;1456;-40
2021/11/01 12:22:33;;;;;;;;;;;;;;;20.66;66.09;100653.97;5094924;28;1766;-40
2021/11/01 12:25:03;;;;;;;;;;;;;;;20.55;66.90;100659.53;5105015;28;1913;-40
2021/11/01 12:27:38;;;;;;;;;;;;;;;20.22;67.30;100651.03;5103427;28;1807;-40
2021/11/01 12:30:13;;;;;;;;;;;;;;;20.04;67.91;100666.19;5109096;27;1367;-39
2021/11/01 12:32:42;;;;;;;;;;;;;;;20.26;67.90;100648.91;5110179;28;1481;-40
2021/11/01 12:35:14;;;;;;;;;;;;;;;20.60;66.10;100659.94;5093774;28;1151;-39
2021/11/01 12:37:51;;;;;;;;;;;;;;;20.50;67.29;100672.56;5092937;28;1642;-39
2021/11/01 12:40:26;;;;;;;;;;;;;;;20.20;66.94;100654.84;5093508;28;1484;-40
2021/11/01 12:43:06;;;;;;;;;;;;;;;20.03;67.27;100653.75;5095951;28;1317;-40
2021/11/01 12:57:03;;;;;;;;;;;;;;;19.78;68.58;100648.03;5106427;28;1452;-39
2021/11/01 12:59:40;;;;;;;;;;;;;;;19.69;68.59;100630.06;5109153;28;1563;-40
2021/11/01 13:02:09;;;;;;;;;;;;;;;20.04;67.92;100644.72;5100565;28;1514;-39
2021/11/01 13:04:38;;;;;;;;;;;;;;;20.29;67.99;100653.13;5103449;28;1988;-40
2021/11/01 13:07:14;;;;;;;;;;;;;;;20.28;67.82;100630.81;5104892;28;1494;-39
2021/11/01 13:09:46;;;;;;;;;;;;;;;20.22;67.49;100631.38;5094966;28;1839;-40
2021/11/01 13:12:37;;;;;;;;;;;;;;;20.43;67.07;100633.84;5095932;28;1053;-39
2021/11/01 13:18:12;;;;;;;;;;;;;;;20.74;65.74;100631.72;5105271;28;1337;-40
2021/11/01 13:20:52;;;;;;;;;;;;;;;20.83;65.19;100629.97;5102493;28;1493;-40
2021/11/01 13:23:19;;;;;;;;;;;;;;;20.76;65.42;100623.53;5093402;28;1847;-40
2021/11/01 13:26:15;;;;;;;;;;;;;;;20.73;66.00;100629.19;5108364;28;2090;-40
2021/11/01 13:29:09;;;;;;;;;;;;;;;20.77;65.43;100649.38;5100586;28;1570;-39
2021/11/01 13:37:20;;;;;;;;;;;;;;;20.80;67.26;100647.25;5103478;28;1618;-39
2021/11/01 13:39:49;;;;;;;;;;;;;;;20.66;66.05;100623.59;5094226;28;1545;-40
2021/11/01 13:42:21;;;;;;;;;;;;;;;20.75;66.04;100640.63;5093104;28;1472;-40
2021/11/01 13:44:51;;;;;;;;;;;;;;;20.70;66.56;100637.56;5097172;28;1969;-41
2021/11/01 13:47:21;;;;;;;;;;;;;;;20.78;65.88;100618.84;5101965;28;1788;-40
2021/11/01 13:49:49;;;;;;;;;;;;;;;20.75;66.94;100627.19;5108584;28;1591;-42
2021/11/01 13:52:34;;;;;;;;;;;;;;;20.69;66.04;100619.75;5106947;28;1745;-41
2021/11/01 13:55:05;;;;;;;;;;;;;;;20.57;67.18;100624.44;5109287;28;1736;-41
2021/11/01 13:57:44;;;;;;;;;;;;;;;20.54;66.10;100620.22;5108759;28;2005;-40
2021/11/01 14:00:29;;;;;;;;;;;;;;;20.38;67.34;100614.66;5107878;28;1609;-40
2021/11/01 14:11:44;;;;;;;;;;;;;;;20.31;66.60;100610.84;5101130;27;2012;-41
2021/11/01 14:14:30;;;;;;;;;;;;;;;20.30;67.23;100622.59;5108528;28;1426;-41
2021/11/01 14:17:02;;;;;;;;;;;;;;;20.34;67.49;100622.16;5097064;28;1685;-41
2021/11/01 14:20:00;;;;;;;;;;;;;;;20.25;66.91;100613.16;5100819;28;1840;-40
2021/11/01 14:28:13;;;;;;;;;;;;;;;20.31;67.58;100625.13;5095738;28;1615;-40
2021/11/01 15:18:22;;;;;;;;;;;;;;;20.46;66.34;100612.06;5100918;28;2480;-41
2021/11/01 15:21:09;;;;;;;;;;;;;;;20.49;66.62;100602.84;5098195;28;1355;-41
2021/11/01 15:26:51;;;;;;;;;;;;;;;20.25;67.35;100599.72;5103782;28;2521;-40
2021/11/01 15:35:40;;;;;;;;;;;;;;;19.93;68.06;100591.22;5119925;27;1827;-41
2021/11/01 16:17:58;;;;;;;;;;;;;;;20.41;68.66;100614.34;5087084;28;2023;-42
2021/11/01 16:20:31;;;;;;;;;;;;;;;20.23;68.43;100607.09;5089971;28;1603;-40
2021/11/01 16:23:26;;;;;;;;;;;;;;;20.42;68.92;100599.94;5097642;28;1556;-42
2021/11/01 16:26:01;;;;;;;;;;;;;;;20.85;68.14;100601.97;5099546;28;1657;-42
2021/11/01 16:28:30;;;;;;;;;;;;;;;20.61;69.13;100617.81;5110016;28;1955;-41
2021/11/01 16:33:55;;;;;;;;;;;;;;;20.36;70.00;100619.31;5103419;28;1918;-40
2021/11/01 16:36:40;;;;;;;;;;;;;;;20.21;71.42;100617.13;5107270;28;1902;-41
2021/11/01 16:39:11;;;;;;;;;;;;;;;20.20;70.66;100602.00;5110247;28;1078;-41
2021/11/01 16:41:53;;;;;;;;;;;;;;;20.75;69.45;100608.38;5109266;28;1927;-41
2021/11/01 16:44:36;;;;;;;;;;;;;;;20.41;71.23;100625.94;5104319;28;1752;-40
2021/11/01 16:47:07;;;;;;;;;;;;;;;20.18;71.76;100617.41;5087216;28;1780;-41
2021/11/01 16:49:34;;;;;;;;;;;;;;;20.14;71.80;100620.53;5091466;28;1817;-41
2021/11/01 16:52:08;;;;;;;;;;;;;;;20.64;70.92;100615.66;5091716;28;1552;-41
2021/11/01 16:54:40;;;;;;;;;;;;;;;20.58;71.00;100626.13;5075956;28;1906;-41
2021/11/01 16:57:14;;;;;;;;;;;;;;;20.40;70.15;100618.03;5083717;28;1722;-41
2021/11/01 16:59:46;;;;;;;;;;;;;;;20.33;71.09;100631.19;5092896;28;1923;-40
2021/11/01 17:02:33;;;;;;;;;;;;;;;20.53;69.66;100631.97;5093856;28;1479;-41
2021/11/01 17:05:34;;;;;;;;;;;;;;;20.71;69.27;100621.31;5087357;28;1658;-41
2021/11/01 17:08:22;;;;;;;;;;;;;;;20.50;70.12;100615.31;5094098;28;1770;-43
2021/11/01 17:22:19;;;;;;;;;;;;;;;20.02;68.92;100614.50;5081758;28;1821;-39
2021/11/01 17:24:51;;;;;;;;;;;;;;;20.46;70.15;100602.16;5078522;28;1933;-40
2021/11/01 17:27:35;;;;;;;;;;;;;;;20.43;68.96;100613.22;5095788;28;2214;-41
2021/11/01 18:43:31;;;;;;;;;;;;;;;20.02;68.51;100591.19;5082397;28;2666;-41
2021/11/01 18:46:16;;;;;;;;;;;;;;;19.81;69.31;100593.22;5085457;28;1855;-41
2021/11/01 18:51:31;;;;;;;;;;;;;;;20.03;68.68;100595.56;5093335;28;1381;-41
2021/11/01 18:54:01;;;;;;;;;;;;;;;19.96;68.61;100593.63;5093802;28;1909;-40
2021/11/01 18:56:34;;;;;;;;;;;;;;;19.68;68.92;100585.47;5093394;28;2001;-41
2021/11/01 18:59:04;;;;;;;;;;;;;;;19.70;70.12;100588.00;5089647;28;2211;-40
2021/11/01 19:01:33;;;;;;;;;;;;;;;20.06;67.86;100592.56;5092788;28;1726;-40
2021/11/01 19:04:00;;;;;;;;;;;;;;;20.10;67.51;100584.25;5089223;28;1608;-41
2021/11/01 19:06:36;;;;;;;;;;;;;;;19.94;68.01;100587.53;5090996;28;1647;-42
2021/11/01 19:09:21;;;;;;;;;;;;;;;19.70;69.95;100593.38;5092688;28;1097;-41
2021/11/01 20:04:45;;;;;;;;;;;;;;;20.15;67.66;100596.22;5047699;28;1958;-41
2021/11/01 20:08:08;;;;;;;;;;;;;;;20.13;66.97;100603.56;5044017;28;1784;-42
2021/11/01 20:13:12;;;;;;;;;;;;;;;20.01;66.75;100602.91;5045451;28;1370;-41
2021/11/01 21:27:14;;;;;;;;;;;;;;;20.26;63.78;100558.44;4993986;28;1833;-41
2021/11/01 21:29:41;;;;;;;;;;;;;;;20.23;63.50;100558.75;5050904;28;1789;-41
2021/11/01 21:32:08;;;;;;;;;;;;;;;20.11;63.75;100567.97;5045866;28;1930;-42
2021/11/01 21:34:36;;;;;;;;;;;;;;;20.09;63.97;100567.28;5050265;28;1974;-41
2021/11/01 21:37:04;;;;;;;;;;;;;;;20.05;62.93;100564.06;5048878;28;1590;-41
2021/11/01 21:39:30;;;;;;;;;;;;;;;19.81;65.28;100569.06;5052408;28;1067;-41
2021/11/01 21:41:57;;;;;;;;;;;;;;;19.70;64.86;100562.00;5042437;28;1903;-41
2021/11/01 21:44:26;;;;;;;;;;;;;;;19.66;64.88;100547.19;5049794;28;1775;-41
2021/11/01 21:46:52;;;;;;;;;;;;;;;19.59;66.04;100548.75;5050034;28;1480;-41
2021/11/01 21:49:19;;;;;;;;;;;;;;;19.58;66.43;100557.81;5053943;28;1656;-41
2021/11/01 21:51:45;;;;;;;;;;;;;;;19.52;64.65;100542.28;5049496;28;1890;-41
2021/11/01 21:54:22;;;;;;;;;;;;;;;19.61;64.48;100530.69;5047268;28;1904;-41
2021/11/01 21:56:53;;;;;;;;;;;;;;;19.58;65.00;100545.25;5053844;28;1635;-41
2021/11/01 21:59:32;;;;;;;;;;;;;;;19.66;64.24;100545.34;5053787;28;1934;-41
2021/11/01 22:18:36;;;;;;;;;;;;;;;19.58;64.15;100539.03;5053690;28;824;-41
2021/11/01 22:21:05;;;;;;;;;;;;;;;19.54;63.78;100529.59;5040849;28;1736;-41
2021/11/01 22:23:38;;;;;;;;;;;;;;;19.58;63.24;100520.25;5050648;28;1593;-41
2021/11/01 22:26:09;;;;;;;;;;;;;;;19.67;64.33;100530.09;5049520;28;1953;-41
2021/11/01 22:34:18;;;;;;;;;;;;;;;19.75;63.62;100513.31;5048873;28;1918;-42
2021/11/01 22:39:36;;;;;;;;;;;;;;;19.63;63.87;100509.91;5048571;28;2055;-41
2021/11/01 22:42:13;;;;;;;;;;;;;;;19.47;63.74;100502.47;5046447;28;2117;-41
2021/11/01 22:44:48;;;;;;;;;;;;;;;19.53;62.97;100496.53;5051761;28;1745;-42
2021/11/01 22:55:44;;;;;;;;;;;;;;;19.58;62.36;100496.97;5038076;28;1977;-41
2021/11/01 22:58:12;;;;;;;;;;;;;;;19.52;62.29;100494.00;5051175;28;1929;-41
2021/11/01 23:00:44;;;;;;;;;;;;;;;19.62;63.50;100484.09;5052687;28;1496;-41
2021/11/01 23:03:14;;;;;;;;;;;;;;;19.59;63.14;100482.53;5051107;28;1821;-42
2021/11/01 23:33:04;;;;;;;;;;;;;;;19.58;62.14;100466.63;5045408;28;1704;-41
2021/11/01 23:35:30;;;;;;;;;;;;;;;19.57;61.32;100459.53;5047586;28;1910;-41
2021/11/01 23:37:58;;;;;;;;;;;;;;;19.54;61.82;100454.50;5053076;28;1115;-41
2021/11/01 23:40:25;;;;;;;;;;;;;;;19.53;62.03;100442.91;5050363;28;1805;-42
2021/11/01 23:42:52;;;;;;;;;;;;;;;19.49;61.49;100449.56;5041363;28;1941;-41
2021/11/01 23:45:18;;;;;;;;;;;;;;;19.48;61.12;100462.13;5051955;28;1778;-41
2021/11/01 23:47:45;;;;;;;;;;;;;;;19.55;61.25;100443.59;5050803;28;1758;-41
2021/11/01 23:50:11;;;;;;;;;;;;;;;19.53;61.32;100447.44;5052240;28;1814;-41
2021/11/01 23:52:40;;;;;;;;;;;;;;;19.61;62.08;100444.84;5044955;28;2159;-41
2021/11/01 23:55:09;;;;;;;;;;;;;;;19.51;61.13;100438.69;5037894;28;1979;-41
2021/11/01 23:57:36;;;;;;;;;;;;;;;19.51;61.87;100444.03;5053217;28;1875;-41
